Time;durP1;ratioP1;P1;durP2;ratioP2;P2;SDS_P1;SDS_P2;PMS_P1;PMS_P2;Temp;Humidity;BMP_temperature;BMP_pressure;BME280_temperature;BME280_humidity;BME280_pressure;Samples;Min_cycle;Max_cycle;Signal;HPM_P1;HPM_P2
2024/03/20 00:00:49;;;;;;;15.10;13.23;;;;;;;;;;4999141;28;20245;-82
2024/03/20 00:03:17;;;;;;;13.43;12.00;;;;;;;;;;4971975;28;20228;-86
2024/03/20 00:05:43;;;;;;;13.80;12.40;;;;;;;;;;4975557;28;20213;-87
2024/03/20 00:08:08;;;;;;;13.83;12.50;;;;;;;;;;4959940;28;20233;-83
2024/03/20 00:10:34;;;;;;;16.10;14.23;;;;;;;;;;4980664;28;20231;-86
2024/03/20 00:13:02;;;;;;;15.40;13.60;;;;;;;;;;4995973;28;20227;-86
2024/03/20 00:15:29;;;;;;;14.17;12.73;;;;;;;;;;5006067;28;20228;-85
2024/03/20 00:17:55;;;;;;;17.43;13.80;;;;;;;;;;4987180;28;20220;-86
2024/03/20 00:20:21;;;;;;;14.83;12.80;;;;;;;;;;4974283;28;20229;-84
2024/03/20 00:22:51;;;;;;;15.57;13.00;;;;;;;;;;4983577;28;20214;-86
2024/03/20 00:25:19;;;;;;;14.67;13.17;;;;;;;;;;4953656;28;20236;-86
2024/03/20 00:27:45;;;;;;;14.10;12.60;;;;;;;;;;5002915;28;20242;-87
2024/03/20 00:30:12;;;;;;;14.10;12.60;;;;;;;;;;4974763;28;20225;-84
2024/03/20 00:32:38;;;;;;;14.50;13.00;;;;;;;;;;4987353;28;20229;-87
2024/03/20 00:35:05;;;;;;;15.83;13.43;;;;;;;;;;4988162;28;20235;-84
2024/03/20 00:37:35;;;;;;;15.77;14.13;;;;;;;;;;4968519;28;20306;-85
2024/03/20 00:40:04;;;;;;;16.00;13.80;;;;;;;;;;4995386;28;20272;-87
2024/03/20 00:42:32;;;;;;;16.63;13.47;;;;;;;;;;4990506;28;20235;-83
2024/03/20 00:45:04;;;;;;;15.60;13.40;;;;;;;;;;4978400;28;20243;-87
2024/03/20 00:47:32;;;;;;;15.50;13.40;;;;;;;;;;4961985;28;20686;-86
2024/03/20 00:49:58;;;;;;;15.00;13.50;;;;;;;;;;4990578;28;20224;-87
2024/03/20 00:52:23;;;;;;;15.00;13.40;;;;;;;;;;4980544;28;20222;-84
2024/03/20 00:54:49;;;;;;;15.40;13.77;;;;;;;;;;4957815;28;20234;-88
2024/03/20 00:57:14;;;;;;;15.77;13.87;;;;;;;;;;4969991;28;20225;-86
2024/03/20 00:59:40;;;;;;;15.30;13.53;;;;;;;;;;4971976;28;20221;-84
2024/03/20 01:02:06;;;;;;;15.73;14.00;;;;;;;;;;4965693;28;20221;-87
2024/03/20 01:04:34;;;;;;;16.30;14.60;;;;;;;;;;4994785;28;20611;-86
2024/03/20 01:06:59;;;;;;;17.97;13.43;;;;;;;;;;4964655;28;20218;-86
2024/03/20 01:09:25;;;;;;;15.83;14.10;;;;;;;;;;4992923;28;20291;-87
2024/03/20 01:11:53;;;;;;;14.97;13.40;;;;;;;;;;4989731;28;20224;-86
2024/03/20 01:14:18;;;;;;;14.90;13.40;;;;;;;;;;4989955;28;20301;-84
2024/03/20 01:16:48;;;;;;;14.93;13.40;;;;;;;;;;4971026;28;20225;-87
2024/03/20 01:19:16;;;;;;;16.83;13.73;;;;;;;;;;4978144;28;20427;-87
2024/03/20 01:21:42;;;;;;;15.83;14.07;;;;;;;;;;4960690;28;20232;-86
2024/03/20 01:24:07;;;;;;;15.37;13.77;;;;;;;;;;4976096;28;20213;-87
2024/03/20 01:26:33;;;;;;;16.83;14.30;;;;;;;;;;4992079;28;20225;-86
2024/03/20 01:28:59;;;;;;;16.00;14.10;;;;;;;;;;4977988;28;20229;-86
2024/03/20 01:31:27;;;;;;;15.57;13.87;;;;;;;;;;4958919;28;20236;-87
2024/03/20 01:33:54;;;;;;;16.53;14.93;;;;;;;;;;4985803;28;20234;-85
2024/03/20 01:36:22;;;;;;;16.17;14.47;;;;;;;;;;4957597;28;20273;-86
2024/03/20 01:38:49;;;;;;;16.63;14.23;;;;;;;;;;5013856;28;20226;-85
2024/03/20 01:41:14;;;;;;;18.10;14.97;;;;;;;;;;4993075;28;20217;-85
2024/03/20 01:43:40;;;;;;;16.90;14.83;;;;;;;;;;4975510;28;20232;-85
2024/03/20 01:46:25;;;;;;;17.33;15.53;;;;;;;;;;4962128;28;20213;-87
2024/03/20 01:48:53;;;;;;;15.40;13.80;;;;;;;;;;4993450;28;20267;-84
2024/03/20 01:51:21;;;;;;;16.33;14.67;;;;;;;;;;4982291;28;20216;-86
2024/03/20 01:53:49;;;;;;;15.90;14.20;;;;;;;;;;4956215;28;20238;-85
2024/03/20 01:56:14;;;;;;;16.50;14.50;;;;;;;;;;4959960;28;20217;-85
2024/03/20 01:58:42;;;;;;;16.23;14.60;;;;;;;;;;4988582;28;20213;-85
2024/03/20 02:01:08;;;;;;;15.53;13.93;;;;;;;;;;4978345;28;20220;-85
2024/03/20 02:03:35;;;;;;;17.70;14.90;;;;;;;;;;4969386;28;20214;-83
2024/03/20 02:06:01;;;;;;;17.23;14.90;;;;;;;;;;4974331;28;20217;-86
2024/03/20 02:08:26;;;;;;;16.67;14.80;;;;;;;;;;4991947;28;20240;-84
2024/03/20 02:10:56;;;;;;;16.60;14.90;;;;;;;;;;4985000;28;20237;-86
2024/03/20 02:13:22;;;;;;;16.13;14.43;;;;;;;;;;4950880;28;20222;-87
2024/03/20 02:15:50;;;;;;;17.07;15.23;;;;;;;;;;4973942;28;20317;-85
2024/03/20 02:18:18;;;;;;;15.83;14.23;;;;;;;;;;4959152;28;20218;-86
2024/03/20 02:20:47;;;;;;;17.13;15.20;;;;;;;;;;4988279;28;20309;-83
2024/03/20 02:23:13;;;;;;;17.03;14.97;;;;;;;;;;4967016;28;20226;-86
2024/03/20 02:25:41;;;;;;;15.53;13.97;;;;;;;;;;4973090;28;20283;-84
2024/03/20 02:28:07;;;;;;;18.07;14.60;;;;;;;;;;5005786;28;20221;-85
2024/03/20 02:30:35;;;;;;;16.40;14.63;;;;;;;;;;4973111;28;20349;-82
2024/03/20 02:33:00;;;;;;;16.87;14.90;;;;;;;;;;4962724;28;20308;-85
2024/03/20 02:35:27;;;;;;;20.10;16.30;;;;;;;;;;4983688;28;20218;-84
2024/03/20 02:37:55;;;;;;;16.83;14.63;;;;;;;;;;4951965;28;20286;-84
2024/03/20 02:40:20;;;;;;;17.63;15.63;;;;;;;;;;4977116;28;20244;-85
2024/03/20 02:42:48;;;;;;;17.00;15.30;;;;;;;;;;4977860;28;20898;-83
2024/03/20 02:45:13;;;;;;;17.10;15.17;;;;;;;;;;4976636;28;20283;-86
2024/03/20 02:47:39;;;;;;;16.57;14.60;;;;;;;;;;5001622;28;20281;-86
2024/03/20 02:50:05;;;;;;;17.80;15.43;;;;;;;;;;4976972;28;20221;-83
2024/03/20 02:52:30;;;;;;;17.50;15.37;;;;;;;;;;4970037;28;20602;-86
2024/03/20 02:54:56;;;;;;;16.77;14.97;;;;;;;;;;4985433;28;20225;-85
2024/03/20 02:57:21;;;;;;;18.67;15.20;;;;;;;;;;4965759;28;20222;-86
2024/03/20 02:59:49;;;;;;;17.93;15.77;;;;;;;;;;4971995;28;20217;-84
2024/03/20 03:02:18;;;;;;;17.27;15.47;;;;;;;;;;4954775;28;20215;-85
2024/03/20 03:04:46;;;;;;;17.33;15.23;;;;;;;;;;4959944;28;20832;-85
2024/03/20 03:07:11;;;;;;;18.47;16.60;;;;;;;;;;4956124;28;20722;-87
2024/03/20 03:09:42;;;;;;;19.80;16.13;;;;;;;;;;4960267;28;20226;-85
2024/03/20 03:12:10;;;;;;;18.43;16.03;;;;;;;;;;4977630;28;20631;-86
2024/03/20 03:14:35;;;;;;;17.93;16.17;;;;;;;;;;4960638;28;20233;-87
2024/03/20 03:17:01;;;;;;;18.53;16.23;;;;;;;;;;4986506;28;20218;-87
2024/03/20 03:19:26;;;;;;;17.87;16.00;;;;;;;;;;4972866;28;20247;-86
2024/03/20 03:21:52;;;;;;;18.57;16.37;;;;;;;;;;4944359;28;20237;-87
2024/03/20 03:24:20;;;;;;;18.57;16.67;;;;;;;;;;4992809;28;20231;-86
2024/03/20 03:26:48;;;;;;;19.33;17.23;;;;;;;;;;4998449;28;20251;-85
2024/03/20 03:29:17;;;;;;;19.00;16.77;;;;;;;;;;4992712;28;20218;-85
2024/03/20 03:31:45;;;;;;;18.13;16.33;;;;;;;;;;4982412;28;20229;-86
2024/03/20 03:34:12;;;;;;;18.17;16.37;;;;;;;;;;4991995;28;20228;-86
2024/03/20 03:36:40;;;;;;;19.40;17.23;;;;;;;;;;5003261;28;20233;-85
2024/03/20 03:39:14;;;;;;;19.40;16.87;;;;;;;;;;4991153;28;20206;-86
2024/03/20 03:41:40;;;;;;;18.33;16.43;;;;;;;;;;5030946;28;20225;-86
2024/03/20 03:44:05;;;;;;;18.20;16.30;;;;;;;;;;4963302;28;20333;-86
2024/03/20 03:46:33;;;;;;;18.20;16.30;;;;;;;;;;4989240;28;20271;-86
2024/03/20 03:48:59;;;;;;;18.47;16.57;;;;;;;;;;4965488;28;20669;-84
2024/03/20 03:51:24;;;;;;;19.77;17.50;;;;;;;;;;4973790;28;20221;-86
2024/03/20 03:53:50;;;;;;;18.90;16.97;;;;;;;;;;4987601;28;20709;-86
2024/03/20 03:56:15;;;;;;;19.63;16.33;;;;;;;;;;5002673;28;20292;-86
2024/03/20 04:02:28;;;;;;;17.67;15.83;;;;;;;;;;4992415;28;20246;-87
2024/03/20 04:04:53;;;;;;;20.47;17.00;;;;;;;;;;4977479;28;20225;-84
2024/03/20 04:07:19;;;;;;;19.57;17.47;;;;;;;;;;5003514;28;20679;-87
2024/03/20 04:09:45;;;;;;;20.50;17.47;;;;;;;;;;4958558;28;20233;-86
2024/03/20 04:12:18;;;;;;;18.90;16.97;;;;;;;;;;5007469;28;20370;-86
2024/03/20 04:14:43;;;;;;;20.27;17.40;;;;;;;;;;4989044;28;20768;-86
2024/03/20 04:17:11;;;;;;;19.67;17.30;;;;;;;;;;4979541;28;20220;-86
2024/03/20 04:19:39;;;;;;;19.63;17.63;;;;;;;;;;4953313;28;20252;-86
2024/03/20 04:22:06;;;;;;;19.10;17.10;;;;;;;;;;4989836;28;20865;-85
2024/03/20 04:24:31;;;;;;;19.37;17.23;;;;;;;;;;4988142;28;20233;-81
2024/03/20 04:26:57;;;;;;;23.00;18.97;;;;;;;;;;4976665;28;20662;-85
2024/03/20 04:29:25;;;;;;;19.57;17.40;;;;;;;;;;4978113;28;20230;-84
2024/03/20 04:31:53;;;;;;;21.13;18.93;;;;;;;;;;4962629;28;20233;-86
2024/03/20 04:34:21;;;;;;;20.27;18.17;;;;;;;;;;4998583;28;20279;-86
2024/03/20 04:36:52;;;;;;;20.70;18.40;;;;;;;;;;4976607;28;20220;-84
2024/03/20 04:39:28;;;;;;;20.90;17.57;;;;;;;;;;4983371;28;20217;-86
2024/03/20 04:41:54;;;;;;;20.10;17.47;;;;;;;;;;5008574;28;20239;-87
2024/03/20 04:44:21;;;;;;;20.13;17.93;;;;;;;;;;4997053;28;20221;-86
2024/03/20 04:46:49;;;;;;;21.00;18.60;;;;;;;;;;4980634;28;20225;-78
2024/03/20 04:49:18;;;;;;;20.73;18.17;;;;;;;;;;4966714;28;20274;-79
2024/03/20 04:51:46;;;;;;;18.80;16.80;;;;;;;;;;4966700;28;20229;-79
2024/03/20 04:54:13;;;;;;;19.03;17.03;;;;;;;;;;4986544;28;20221;-78
2024/03/20 04:56:39;;;;;;;19.03;17.03;;;;;;;;;;4985998;28;20642;-79
2024/03/20 04:59:09;;;;;;;19.37;16.97;;;;;;;;;;4982761;28;20209;-79
2024/03/20 05:01:35;;;;;;;19.60;17.00;;;;;;;;;;4999695;28;20230;-78
2024/03/20 05:04:04;;;;;;;20.43;17.70;;;;;;;;;;4986289;28;20726;-78
2024/03/20 05:06:34;;;;;;;20.23;17.83;;;;;;;;;;4954472;28;20226;-78
2024/03/20 05:08:59;;;;;;;21.47;19.13;;;;;;;;;;4995493;28;20226;-78
2024/03/20 05:11:25;;;;;;;23.77;17.90;;;;;;;;;;4966964;28;20291;-78
2024/03/20 05:13:50;;;;;;;18.90;16.90;;;;;;;;;;4964515;28;20980;-79
2024/03/20 05:16:18;;;;;;;18.80;16.80;;;;;;;;;;4999071;28;20578;-79
2024/03/20 05:18:46;;;;;;;40.63;31.20;;;;;;;;;;4965581;28;20221;-78
2024/03/20 05:21:13;;;;;;;52.53;38.57;;;;;;;;;;4985265;28;20757;-78
2024/03/20 05:23:46;;;;;;;23.53;20.73;;;;;;;;;;4982269;28;20225;-79
2024/03/20 05:26:11;;;;;;;69.13;46.80;;;;;;;;;;4981101;28;20229;-78
2024/03/20 05:28:39;;;;;;;21.60;19.30;;;;;;;;;;4982036;28;20225;-79
2024/03/20 05:31:07;;;;;;;18.23;16.43;;;;;;;;;;4969693;28;20232;-78
2024/03/20 05:33:33;;;;;;;23.03;18.90;;;;;;;;;;4981140;28;20703;-79
2024/03/20 05:35:58;;;;;;;19.50;17.17;;;;;;;;;;4997388;28;20316;-78
2024/03/20 05:38:24;;;;;;;21.13;18.53;;;;;;;;;;4982651;28;20237;-78
2024/03/20 05:40:52;;;;;;;20.20;18.03;;;;;;;;;;5001131;28;20244;-78
2024/03/20 05:43:17;;;;;;;21.13;18.17;;;;;;;;;;4971558;28;20363;-78
2024/03/20 05:45:45;;;;;;;19.20;17.07;;;;;;;;;;5000867;28;20233;-78
2024/03/20 05:48:10;;;;;;;19.83;17.80;;;;;;;;;;4982729;28;20225;-79
2024/03/20 05:50:38;;;;;;;21.77;17.83;;;;;;;;;;4998474;28;20230;-78
2024/03/20 05:53:08;;;;;;;21.23;18.40;;;;;;;;;;4990052;28;20236;-78
2024/03/20 05:55:37;;;;;;;19.60;17.50;;;;;;;;;;4988896;28;20229;-78
2024/03/20 05:58:07;;;;;;;20.07;17.70;;;;;;;;;;4985050;28;20214;-79
2024/03/20 06:00:32;;;;;;;20.10;18.00;;;;;;;;;;4988496;28;20249;-78
2024/03/20 06:03:02;;;;;;;21.63;18.20;;;;;;;;;;4987324;28;20230;-78
2024/03/20 06:05:31;;;;;;;20.17;17.80;;;;;;;;;;5004655;28;20255;-78
2024/03/20 06:07:57;;;;;;;20.03;17.63;;;;;;;;;;5000958;28;20237;-78
2024/03/20 06:10:24;;;;;;;19.50;16.70;;;;;;;;;;4995859;28;20895;-77
2024/03/20 06:12:52;;;;;;;19.37;17.37;;;;;;;;;;4980578;28;20265;-78
2024/03/20 06:15:20;;;;;;;20.80;18.07;;;;;;;;;;4980936;28;20225;-78
2024/03/20 06:17:48;;;;;;;19.47;17.43;;;;;;;;;;4981222;28;20218;-78
2024/03/20 06:20:15;;;;;;;22.77;17.07;;;;;;;;;;4977287;28;20229;-78
2024/03/20 06:22:43;;;;;;;19.60;17.57;;;;;;;;;;4961403;28;20760;-78
2024/03/20 06:25:13;;;;;;;19.67;17.07;;;;;;;;;;5004853;28;20232;-79
2024/03/20 06:27:41;;;;;;;20.07;17.23;;;;;;;;;;5007119;28;20233;-78
2024/03/20 06:30:15;;;;;;;19.53;17.43;;;;;;;;;;4961436;28;20472;-78
2024/03/20 06:32:44;;;;;;;19.87;16.90;;;;;;;;;;4992758;28;20222;-78
2024/03/20 06:35:12;;;;;;;20.33;18.03;;;;;;;;;;4994033;28;20246;-79
2024/03/20 06:37:37;;;;;;;18.67;16.77;;;;;;;;;;4996505;28;20340;-77
2024/03/20 06:40:08;;;;;;;18.57;16.63;;;;;;;;;;5003939;28;20232;-78
2024/03/20 06:42:39;;;;;;;19.30;17.30;;;;;;;;;;5010468;28;20310;-78
2024/03/20 06:45:09;;;;;;;19.53;16.67;;;;;;;;;;4993802;28;20237;-77
2024/03/20 06:47:35;;;;;;;18.57;16.57;;;;;;;;;;4998690;28;20233;-77
2024/03/20 06:50:02;;;;;;;19.33;17.33;;;;;;;;;;5005648;28;20237;-78
2024/03/20 06:52:28;;;;;;;20.07;17.00;;;;;;;;;;5019790;28;20229;-78
2024/03/20 06:54:53;;;;;;;19.13;16.50;;;;;;;;;;4964923;28;20379;-78
2024/03/20 06:57:22;;;;;;;18.80;16.87;;;;;;;;;;4979157;28;20228;-78
2024/03/20 06:59:48;;;;;;;19.20;16.67;;;;;;;;;;4992298;28;20306;-78
2024/03/20 07:02:14;;;;;;;18.47;16.20;;;;;;;;;;4975602;28;20221;-78
2024/03/20 07:04:40;;;;;;;18.17;16.33;;;;;;;;;;5007364;28;20230;-78
2024/03/20 07:07:07;;;;;;;18.07;16.17;;;;;;;;;;4962578;28;20241;-77
2024/03/20 07:09:34;;;;;;;17.87;16.07;;;;;;;;;;4944945;28;20233;-78
2024/03/20 07:12:02;;;;;;;18.93;16.37;;;;;;;;;;4988933;28;20229;-78
2024/03/20 07:14:32;;;;;;;18.07;15.87;;;;;;;;;;5003789;28;20264;-78
2024/03/20 07:16:58;;;;;;;19.80;16.07;;;;;;;;;;5003702;28;20233;-79
2024/03/20 07:19:26;;;;;;;17.93;16.00;;;;;;;;;;4991321;28;20225;-78
2024/03/20 07:21:52;;;;;;;18.27;16.00;;;;;;;;;;5011537;28;20232;-78
2024/03/20 07:24:17;;;;;;;18.03;16.00;;;;;;;;;;4970381;28;20319;-79
2024/03/20 07:26:43;;;;;;;17.80;16.00;;;;;;;;;;4991336;28;20298;-77
2024/03/20 07:29:11;;;;;;;17.80;15.90;;;;;;;;;;4973909;28;20213;-78
2024/03/20 07:31:37;;;;;;;17.93;15.43;;;;;;;;;;5001311;28;20229;-78
2024/03/20 07:34:05;;;;;;;17.67;15.77;;;;;;;;;;4992547;28;20330;-79
2024/03/20 07:36:33;;;;;;;17.47;15.63;;;;;;;;;;4992242;28;20741;-77
2024/03/20 07:39:03;;;;;;;18.58;16.10;;;;;;;;;;4991333;28;20236;-77
2024/03/20 07:41:29;;;;;;;17.70;15.80;;;;;;;;;;5031004;28;20228;-78
2024/03/20 07:43:57;;;;;;;20.70;16.33;;;;;;;;;;4991862;28;20340;-78
2024/03/20 07:46:23;;;;;;;19.75;15.50;;;;;;;;;;4991037;28;20253;-78
2024/03/20 07:48:49;;;;;;;17.48;15.10;;;;;;;;;;5001107;28;20738;-78
2024/03/20 07:51:15;;;;;;;17.08;14.23;;;;;;;;;;4994122;28;20290;-78
2024/03/20 07:53:44;;;;;;;16.10;14.40;;;;;;;;;;4977587;28;20228;-78
2024/03/20 07:56:10;;;;;;;15.20;13.30;;;;;;;;;;5009585;28;20222;-78
2024/03/20 07:58:40;;;;;;;16.58;14.77;;;;;;;;;;5000587;28;20230;-78
2024/03/20 08:01:06;;;;;;;17.95;14.80;;;;;;;;;;4986337;28;20229;-78
2024/03/20 08:03:32;;;;;;;17.40;14.65;;;;;;;;;;4988107;28;20693;-78
2024/03/20 08:05:58;;;;;;;17.92;15.00;;;;;;;;;;4987787;28;20283;-79
2024/03/20 08:08:24;;;;;;;17.83;14.43;;;;;;;;;;4962678;28;20241;-78
2024/03/20 08:10:52;;;;;;;15.82;13.32;;;;;;;;;;5005447;28;20246;-78
2024/03/20 08:13:20;;;;;;;15.80;13.52;;;;;;;;;;4991023;28;20225;-78
2024/03/20 08:15:46;;;;;;;15.88;14.18;;;;;;;;;;4981377;28;20275;-78
2024/03/20 08:18:16;;;;;;;17.60;14.50;;;;;;;;;;5010701;28;20198;-78
2024/03/20 08:20:41;;;;;;;15.82;13.90;;;;;;;;;;5004621;28;20229;-78
2024/03/20 08:23:07;;;;;;;16.77;13.60;;;;;;;;;;4986524;28;20229;-78
2024/03/20 08:25:32;;;;;;;17.20;13.95;;;;;;;;;;5002326;28;20325;-78
2024/03/20 08:27:58;;;;;;;16.45;14.07;;;;;;;;;;5005260;28;20226;-78
2024/03/20 08:30:24;;;;;;;16.25;14.00;;;;;;;;;;4999410;28;20236;-78
2024/03/20 08:32:50;;;;;;;15.63;13.45;;;;;;;;;;5004998;28;20240;-78
2024/03/20 08:35:17;;;;;;;16.40;13.30;;;;;;;;;;4986763;28;20249;-79
2024/03/20 08:37:43;;;;;;;16.38;13.57;;;;;;;;;;5000676;28;20225;-78
2024/03/20 08:40:10;;;;;;;15.05;13.48;;;;;;;;;;4984629;28;20312;-79
2024/03/20 08:42:40;;;;;;;16.88;13.65;;;;;;;;;;4936494;28;20214;-78
2024/03/20 08:45:08;;;;;;;16.23;13.82;;;;;;;;;;4965663;28;20229;-78
2024/03/20 08:47:34;;;;;;;18.80;13.73;;;;;;;;;;4973020;28;20435;-77
2024/03/20 08:50:03;;;;;;;16.83;14.05;;;;;;;;;;4971122;28;20234;-77
2024/03/20 08:52:28;;;;;;;16.52;14.13;;;;;;;;;;4963471;28;20261;-78
2024/03/20 08:54:54;;;;;;;15.40;13.75;;;;;;;;;;4979606;28;20248;-78
2024/03/20 08:57:22;;;;;;;16.48;14.18;;;;;;;;;;4968737;28;20217;-77
2024/03/20 08:59:50;;;;;;;15.88;14.13;;;;;;;;;;4998835;28;20264;-78
2024/03/20 09:02:18;;;;;;;16.88;14.57;;;;;;;;;;4997597;28;20979;-78
2024/03/20 09:04:44;;;;;;;15.75;14.05;;;;;;;;;;4967869;28;20679;-77
2024/03/20 09:07:10;;;;;;;16.23;13.85;;;;;;;;;;4994856;28;20295;-78
2024/03/20 09:09:35;;;;;;;16.88;14.30;;;;;;;;;;4996754;28;20237;-78
2024/03/20 09:12:04;;;;;;;16.85;14.05;;;;;;;;;;4988498;28;20225;-78
2024/03/20 09:14:35;;;;;;;17.00;14.55;;;;;;;;;;5016987;28;20235;-77
2024/03/20 09:17:03;;;;;;;15.73;13.73;;;;;;;;;;4977552;28;20256;-78
2024/03/20 09:19:31;;;;;;;16.42;14.10;;;;;;;;;;5011715;28;20255;-78
2024/03/20 09:22:02;;;;;;;17.95;14.57;;;;;;;;;;5011787;28;20221;-79
2024/03/20 09:24:27;;;;;;;16.63;14.40;;;;;;;;;;4987384;28;20284;-78
2024/03/20 09:26:53;;;;;;;17.08;15.15;;;;;;;;;;4974172;28;20214;-78
2024/03/20 09:29:21;;;;;;;17.95;14.95;;;;;;;;;;5003988;28;20283;-78
2024/03/20 09:31:46;;;;;;;16.80;14.55;;;;;;;;;;4998420;28;20233;-78
2024/03/20 09:34:14;;;;;;;16.02;13.70;;;;;;;;;;5002618;28;20296;-78
2024/03/20 09:36:42;;;;;;;15.93;14.30;;;;;;;;;;4989039;28;20318;-78
2024/03/20 09:39:10;;;;;;;15.80;14.20;;;;;;;;;;4975821;28;20222;-78
2024/03/20 09:41:38;;;;;;;17.13;14.50;;;;;;;;;;4984619;28;20231;-78
2024/03/20 09:44:08;;;;;;;17.95;14.25;;;;;;;;;;4981688;28;21100;-78
2024/03/20 09:46:34;;;;;;;17.52;14.55;;;;;;;;;;4997314;28;20229;-79
2024/03/20 09:48:59;;;;;;;17.45;15.23;;;;;;;;;;4997833;28;20257;-78
2024/03/20 09:51:25;;;;;;;16.48;14.50;;;;;;;;;;4997989;28;20717;-77
2024/03/20 09:53:51;;;;;;;18.70;15.27;;;;;;;;;;5006615;28;20267;-78
2024/03/20 09:56:18;;;;;;;18.13;14.63;;;;;;;;;;4999775;28;20220;-78
2024/03/20 09:58:44;;;;;;;16.42;14.73;;;;;;;;;;4980301;28;20934;-78
2024/03/20 10:01:12;;;;;;;17.42;15.13;;;;;;;;;;5010447;28;20222;-78
2024/03/20 10:03:39;;;;;;;17.05;14.90;;;;;;;;;;4987667;28;20222;-78
2024/03/20 10:06:06;;;;;;;18.17;14.80;;;;;;;;;;5015683;28;20268;-78
2024/03/20 10:08:37;;;;;;;18.17;14.82;;;;;;;;;;4961088;28;20313;-78
2024/03/20 10:11:05;;;;;;;19.10;15.60;;;;;;;;;;4948103;28;20237;-78
2024/03/20 10:13:31;;;;;;;16.88;15.23;;;;;;;;;;4986318;28;20214;-78
2024/03/20 10:16:07;;;;;;;18.52;15.50;;;;;;;;;;4961976;28;20236;-78
2024/03/20 10:18:33;;;;;;;18.02;14.77;;;;;;;;;;4977721;28;20260;-78
2024/03/20 10:20:59;;;;;;;20.10;14.73;;;;;;;;;;5018351;28;20221;-78
2024/03/20 10:23:25;;;;;;;17.55;15.38;;;;;;;;;;4993000;28;20302;-78
2024/03/20 10:25:51;;;;;;;17.08;15.27;;;;;;;;;;4985316;28;20676;-78
2024/03/20 10:28:20;;;;;;;17.23;15.43;;;;;;;;;;4969091;28;20318;-78
2024/03/20 10:30:51;;;;;;;17.13;14.75;;;;;;;;;;4982186;28;20226;-77
2024/03/20 10:33:17;;;;;;;17.50;15.70;;;;;;;;;;5005908;28;20225;-78
2024/03/20 10:35:48;;;;;;;17.70;15.63;;;;;;;;;;4987226;28;20230;-77
2024/03/20 10:38:13;;;;;;;18.00;16.10;;;;;;;;;;4975974;28;20351;-77
2024/03/20 10:40:39;;;;;;;19.73;17.67;;;;;;;;;;4967583;28;20221;-77
2024/03/20 10:43:09;;;;;;;18.65;16.60;;;;;;;;;;4968032;28;20600;-78
2024/03/20 10:45:34;;;;;;;20.05;17.13;;;;;;;;;;4990273;28;20231;-77
2024/03/20 10:48:02;;;;;;;19.02;16.20;;;;;;;;;;4985297;28;20639;-77
2024/03/20 10:50:32;;;;;;;18.50;16.60;;;;;;;;;;4969570;28;20753;-78
2024/03/20 10:53:00;;;;;;;18.63;16.60;;;;;;;;;;4960651;28;20698;-77
2024/03/20 10:55:25;;;;;;;20.67;16.52;;;;;;;;;;4979334;28;20235;-78
2024/03/20 10:57:51;;;;;;;17.52;15.68;;;;;;;;;;4993801;28;20220;-78
2024/03/20 11:00:24;;;;;;;19.48;16.08;;;;;;;;;;5003962;28;20226;-78
2024/03/20 11:02:50;;;;;;;19.05;16.42;;;;;;;;;;4969251;28;20233;-78
2024/03/20 11:05:33;;;;;;;20.25;16.90;;;;;;;;;;4955982;28;20217;-78
2024/03/20 11:08:00;;;;;;;17.65;15.73;;;;;;;;;;5003371;28;20252;-77
2024/03/20 11:10:27;;;;;;;17.50;15.55;;;;;;;;;;4969017;28;20279;-78
2024/03/20 11:12:55;;;;;;;19.35;15.65;;;;;;;;;;4990793;28;20248;-78
2024/03/20 11:15:24;;;;;;;18.45;16.40;;;;;;;;;;4957236;28;20225;-78
2024/03/20 11:17:52;;;;;;;19.05;15.88;;;;;;;;;;4982606;28;20221;-78
2024/03/20 11:20:33;;;;;;;18.83;16.17;;;;;;;;;;4975344;28;20236;-78
2024/03/20 11:23:08;;;;;;;19.17;16.13;;;;;;;;;;4983298;28;20229;-79
2024/03/20 11:25:34;;;;;;;17.88;16.08;;;;;;;;;;4965804;28;20233;-78
2024/03/20 11:28:03;;;;;;;17.65;15.85;;;;;;;;;;5001121;28;20221;-78
2024/03/20 11:30:28;;;;;;;17.73;15.43;;;;;;;;;;4968060;28;20237;-78
2024/03/20 11:32:54;;;;;;;18.45;15.18;;;;;;;;;;5000209;28;20229;-78
2024/03/20 11:35:23;;;;;;;18.25;15.23;;;;;;;;;;4964764;28;20233;-78
2024/03/20 11:37:49;;;;;;;15.95;14.35;;;;;;;;;;4966530;28;20220;-78
2024/03/20 11:40:14;;;;;;;14.68;13.13;;;;;;;;;;4997276;28;20214;-77
2024/03/20 11:42:40;;;;;;;16.55;13.23;;;;;;;;;;4998767;28;20600;-78
2024/03/20 11:45:08;;;;;;;16.40;13.32;;;;;;;;;;4958462;28;20226;-78
2024/03/20 11:47:38;;;;;;;16.63;13.73;;;;;;;;;;4979196;28;20252;-78
2024/03/20 11:50:05;;;;;;;16.13;13.25;;;;;;;;;;4950433;28;20232;-78
2024/03/20 11:52:31;;;;;;;15.63;13.13;;;;;;;;;;5004032;28;20240;-78
2024/03/20 11:54:59;;;;;;;14.18;12.50;;;;;;;;;;4999272;28;20257;-77
2024/03/20 11:57:27;;;;;;;16.45;14.05;;;;;;;;;;4983967;28;20230;-77
2024/03/20 11:59:52;;;;;;;15.07;13.00;;;;;;;;;;5010430;28;20247;-77
2024/03/20 12:02:19;;;;;;;14.77;13.18;;;;;;;;;;4974943;28;20737;-77
2024/03/20 12:04:44;;;;;;;16.83;13.30;;;;;;;;;;4992609;28;20214;-78
2024/03/20 12:07:32;;;;;;;14.98;13.32;;;;;;;;;;4994636;28;20229;-78
2024/03/20 12:10:00;;;;;;;14.35;12.45;;;;;;;;;;5017905;28;20222;-77
2024/03/20 12:12:26;;;;;;;15.30;12.85;;;;;;;;;;4992931;28;20256;-79
2024/03/20 12:14:59;;;;;;;16.05;12.52;;;;;;;;;;4990559;28;20229;-77
2024/03/20 12:17:26;;;;;;;13.55;12.15;;;;;;;;;;5006374;28;20234;-77
2024/03/20 12:19:52;;;;;;;14.55;12.00;;;;;;;;;;4950385;28;20254;-79
2024/03/20 12:22:19;;;;;;;14.82;13.20;;;;;;;;;;4994445;28;20221;-78
2024/03/20 12:24:47;;;;;;;14.98;12.45;;;;;;;;;;5001885;28;20344;-78
2024/03/20 12:27:17;;;;;;;15.38;12.18;;;;;;;;;;5000706;28;20225;-78
2024/03/20 12:29:43;;;;;;;15.27;12.88;;;;;;;;;;4971173;28;20314;-77
2024/03/20 12:32:09;;;;;;;16.45;13.27;;;;;;;;;;4970357;28;20225;-78
2024/03/20 12:34:34;;;;;;;14.25;11.95;;;;;;;;;;4958726;28;20225;-78
2024/03/20 12:37:00;;;;;;;13.98;12.52;;;;;;;;;;5006798;28;20221;-77
2024/03/20 12:39:30;;;;;;;12.68;11.38;;;;;;;;;;4955743;28;20312;-78
2024/03/20 12:42:02;;;;;;;13.63;11.55;;;;;;;;;;4998235;28;20233;-78
2024/03/20 12:44:30;;;;;;;15.50;11.73;;;;;;;;;;4955687;28;20710;-79
2024/03/20 12:46:56;;;;;;;11.82;10.57;;;;;;;;;;4993385;28;20673;-79
2024/03/20 12:49:22;;;;;;;13.30;11.00;;;;;;;;;;4975102;28;20230;-78
2024/03/20 12:51:50;;;;;;;12.93;11.20;;;;;;;;;;4987588;28;20225;-79
2024/03/20 12:54:15;;;;;;;14.60;11.35;;;;;;;;;;5005884;28;20344;-78
2024/03/20 12:56:41;;;;;;;13.07;11.20;;;;;;;;;;5007480;28;20225;-78
2024/03/20 12:59:12;;;;;;;13.38;10.98;;;;;;;;;;5008920;28;20240;-78
2024/03/20 13:01:40;;;;;;;14.32;12.68;;;;;;;;;;4967561;28;20219;-78
2024/03/20 13:04:10;;;;;;;16.08;12.07;;;;;;;;;;4940368;28;20225;-78
2024/03/20 13:06:38;;;;;;;13.25;11.35;;;;;;;;;;4967364;28;20289;-77
2024/03/20 13:09:10;;;;;;;15.35;11.77;;;;;;;;;;4985136;28;20329;-78
2024/03/20 13:11:38;;;;;;;12.52;11.23;;;;;;;;;;4976548;28;20754;-79
2024/03/20 13:14:06;;;;;;;13.55;11.52;;;;;;;;;;4985216;28;20247;-80
2024/03/20 13:16:31;;;;;;;13.52;10.88;;;;;;;;;;4971700;28;20768;-78
2024/03/20 13:18:58;;;;;;;13.80;11.20;;;;;;;;;;4946754;28;20225;-78
2024/03/20 13:21:26;;;;;;;13.43;12.02;;;;;;;;;;4983599;28;20233;-79
2024/03/20 13:24:08;;;;;;;13.00;11.70;;;;;;;;;;4986060;28;20316;-79
2024/03/20 13:26:35;;;;;;;12.70;11.27;;;;;;;;;;4972234;28;20261;-78
2024/03/20 13:29:07;;;;;;;12.23;10.95;;;;;;;;;;5021303;28;20225;-80
2024/03/20 13:31:35;;;;;;;12.50;11.27;;;;;;;;;;4988847;28;20225;-79
2024/03/20 13:34:03;;;;;;;15.88;12.20;;;;;;;;;;4972913;28;20389;-80
2024/03/20 13:36:31;;;;;;;13.10;11.77;;;;;;;;;;4972647;28;20803;-79
2024/03/20 13:39:11;;;;;;;13.38;11.00;;;;;;;;;;5002829;28;20218;-79
2024/03/20 13:44:20;;;;;;;11.32;9.75;;;;;;;;;;4996919;28;20703;-79
2024/03/20 13:46:48;;;;;;;11.77;10.13;;;;;;;;;;4984398;28;20228;-80
2024/03/20 13:49:18;;;;;;;13.38;11.20;;;;;;;;;;4994638;28;20225;-78
2024/03/20 13:51:46;;;;;;;12.13;10.85;;;;;;;;;;4995045;28;20268;-79
2024/03/20 13:54:14;;;;;;;11.82;9.95;;;;;;;;;;4972661;28;20459;-80
2024/03/20 13:56:40;;;;;;;10.98;9.88;;;;;;;;;;5003336;28;20733;-79
2024/03/20 13:59:06;;;;;;;10.70;9.52;;;;;;;;;;5002390;28;20226;-79
2024/03/20 14:01:34;;;;;;;10.63;9.52;;;;;;;;;;5006952;28;20222;-78
2024/03/20 14:04:00;;;;;;;10.50;9.40;;;;;;;;;;4964813;28;20489;-79
2024/03/20 14:06:29;;;;;;;10.20;9.07;;;;;;;;;;4998906;28;20222;-80
2024/03/20 14:08:55;;;;;;;9.85;8.80;;;;;;;;;;4975835;28;20286;-79
2024/03/20 14:11:24;;;;;;;10.48;8.43;;;;;;;;;;5001060;28;20229;-81
2024/03/20 14:13:51;;;;;;;10.52;8.48;;;;;;;;;;4990153;28;20226;-80
2024/03/20 14:16:26;;;;;;;10.32;8.75;;;;;;;;;;4989437;28;20232;-78
2024/03/20 14:18:55;;;;;;;9.85;8.48;;;;;;;;;;4994285;28;20239;-80
2024/03/20 14:21:22;;;;;;;10.00;8.52;;;;;;;;;;4988052;28;20233;-79
2024/03/20 14:23:50;;;;;;;10.57;8.90;;;;;;;;;;4993460;28;20225;-79
2024/03/20 14:26:17;;;;;;;10.65;9.55;;;;;;;;;;4993046;28;20710;-79